sensor_id;sensor_type;location;lat;lon;timestamp;temperature;humidity
1107;DHT22;540;49.448;8.612;2024-02-04T00:00:40;9.60;99.90
1107;DHT22;540;49.448;8.612;2024-02-04T00:03:09;9.50;99.90
1107;DHT22;540;49.448;8.612;2024-02-04T00:05:37;9.70;99.90
1107;DHT22;540;49.448;8.612;2024-02-04T00:08:05;9.40;99.90
1107;DHT22;540;49.448;8.612;2024-02-04T00:10:33;9.40;99.90
1107;DHT22;540;49.448;8.612;2024-02-04T00:13:03;9.70;99.90
1107;DHT22;540;49.448;8.612;2024-02-04T00:15:31;9.50;99.90
1107;DHT22;540;49.448;8.612;2024-02-04T00:18:00;9.40;99.90
1107;DHT22;540;49.448;8.612;2024-02-04T00:20:28;9.50;99.90
1107;DHT22;540;49.448;8.612;2024-02-04T00:22:59;9.50;99.90
1107;DHT22;540;49.448;8.612;2024-02-04T00:25:27;9.60;99.90
1107;DHT22;540;49.448;8.612;2024-02-04T00:27:56;9.50;99.90
1107;DHT22;540;49.448;8.612;2024-02-04T00:30:24;9.40;99.90
1107;DHT22;540;49.448;8.612;2024-02-04T00:32:53;9.30;99.90
1107;DHT22;540;49.448;8.612;2024-02-04T00:35:22;9.80;99.90
1107;DHT22;540;49.448;8.612;2024-02-04T00:37:50;9.50;99.90
1107;DHT22;540;49.448;8.612;2024-02-04T00:40:18;9.40;99.90
1107;DHT22;540;49.448;8.612;2024-02-04T00:42:46;9.50;99.90
1107;DHT22;540;49.448;8.612;2024-02-04T00:45:14;9.40;99.90
1107;DHT22;540;49.448;8.612;2024-02-04T00:47:42;9.50;99.90
1107;DHT22;540;49.448;8.612;2024-02-04T00:50:10;9.40;99.90
1107;DHT22;540;49.448;8.612;2024-02-04T00:52:40;9.40;99.90
1107;DHT22;540;49.448;8.612;2024-02-04T00:55:08;9.40;99.90
1107;DHT22;540;49.448;8.612;2024-02-04T00:57:36;9.70;99.90
1107;DHT22;540;49.448;8.612;2024-02-04T01:00:08;9.40;99.90
1107;DHT22;540;49.448;8.612;2024-02-04T01:02:36;9.40;99.90
1107;DHT22;540;49.448;8.612;2024-02-04T01:05:04;9.40;99.90
1107;DHT22;540;49.448;8.612;2024-02-04T01:07:35;9.40;99.90
1107;DHT22;540;49.448;8.612;2024-02-04T01:10:05;9.40;99.90
1107;DHT22;540;49.448;8.612;2024-02-04T01:12:35;9.30;99.90
1107;DHT22;540;49.448;8.612;2024-02-04T01:15:04;9.50;99.90
1107;DHT22;540;49.448;8.612;2024-02-04T01:17:32;8.70;99.90
1107;DHT22;540;49.448;8.612;2024-02-04T01:20:01;9.50;99.90
1107;DHT22;540;49.448;8.612;2024-02-04T01:22:31;9.40;99.90
1107;DHT22;540;49.448;8.612;2024-02-04T01:24:59;9.20;99.90
1107;DHT22;540;49.448;8.612;2024-02-04T01:27:28;9.30;99.90
1107;DHT22;540;49.448;8.612;2024-02-04T01:29:56;9.20;99.90
1107;DHT22;540;49.448;8.612;2024-02-04T01:32:24;9.10;99.90
1107;DHT22;540;49.448;8.612;2024-02-04T01:34:52;9.30;99.90
1107;DHT22;540;49.448;8.612;2024-02-04T01:37:20;9.30;99.90
1107;DHT22;540;49.448;8.612;2024-02-04T01:39:48;9.10;99.90
1107;DHT22;540;49.448;8.612;2024-02-04T01:42:16;9.30;99.90
1107;DHT22;540;49.448;8.612;2024-02-04T01:44:45;9.10;99.90
1107;DHT22;540;49.448;8.612;2024-02-04T01:47:12;9.10;99.90
1107;DHT22;540;49.448;8.612;2024-02-04T01:49:41;9.20;99.90
1107;DHT22;540;49.448;8.612;2024-02-04T01:52:11;9.10;99.90
1107;DHT22;540;49.448;8.612;2024-02-04T01:54:40;9.10;99.90
1107;DHT22;540;49.448;8.612;2024-02-04T01:57:10;9.00;99.90
1107;DHT22;540;49.448;8.612;2024-02-04T01:59:39;9.30;99.90
1107;DHT22;540;49.448;8.612;2024-02-04T02:02:08;9.00;99.90
1107;DHT22;540;49.448;8.612;2024-02-04T02:04:36;8.90;99.90
1107;DHT22;540;49.448;8.612;2024-02-04T02:07:04;9.10;99.90
1107;DHT22;540;49.448;8.612;2024-02-04T02:09:34;9.10;99.90
1107;DHT22;540;49.448;8.612;2024-02-04T02:12:07;9.00;99.90
1107;DHT22;540;49.448;8.612;2024-02-04T02:14:41;8.50;99.90
1107;DHT22;540;49.448;8.612;2024-02-04T02:17:13;8.90;99.90
1107;DHT22;540;49.448;8.612;2024-02-04T02:19:47;9.10;99.90
1107;DHT22;540;49.448;8.612;2024-02-04T02:22:25;8.90;99.90
1107;DHT22;540;49.448;8.612;2024-02-04T02:24:56;9.20;99.90
1107;DHT22;540;49.448;8.612;2024-02-04T02:27:25;9.00;99.90
1107;DHT22;540;49.448;8.612;2024-02-04T02:29:53;8.80;99.90
1107;DHT22;540;49.448;8.612;2024-02-04T02:32:21;8.80;99.90
1107;DHT22;540;49.448;8.612;2024-02-04T02:34:50;8.90;99.90
1107;DHT22;540;49.448;8.612;2024-02-04T02:37:24;9.00;99.90
1107;DHT22;540;49.448;8.612;2024-02-04T02:39:58;9.20;99.90
1107;DHT22;540;49.448;8.612;2024-02-04T02:42:27;9.00;99.90
1107;DHT22;540;49.448;8.612;2024-02-04T02:44:56;9.00;99.90
1107;DHT22;540;49.448;8.612;2024-02-04T02:47:26;9.00;99.90
1107;DHT22;540;49.448;8.612;2024-02-04T02:49:54;8.90;99.90
1107;DHT22;540;49.448;8.612;2024-02-04T02:52:23;8.90;99.90
1107;DHT22;540;49.448;8.612;2024-02-04T02:54:51;9.10;99.90
1107;DHT22;540;49.448;8.612;2024-02-04T02:57:20;8.90;99.90
1107;DHT22;540;49.448;8.612;2024-02-04T02:59:48;8.90;99.90
1107;DHT22;540;49.448;8.612;2024-02-04T03:02:16;8.90;99.90
1107;DHT22;540;49.448;8.612;2024-02-04T03:04:44;9.10;99.90
1107;DHT22;540;49.448;8.612;2024-02-04T03:07:12;9.20;99.90
1107;DHT22;540;49.448;8.612;2024-02-04T03:09:40;8.80;99.90
1107;DHT22;540;49.448;8.612;2024-02-04T03:12:07;8.90;99.90
1107;DHT22;540;49.448;8.612;2024-02-04T03:14:37;8.80;99.90
1107;DHT22;540;49.448;8.612;2024-02-04T03:17:05;8.90;99.90
1107;DHT22;540;49.448;8.612;2024-02-04T03:19:32;9.10;99.90
1107;DHT22;540;49.448;8.612;2024-02-04T03:22:00;8.90;99.90
1107;DHT22;540;49.448;8.612;2024-02-04T03:24:28;9.10;99.90
1107;DHT22;540;49.448;8.612;2024-02-04T03:26:56;9.00;99.90
1107;DHT22;540;49.448;8.612;2024-02-04T03:29:24;8.70;99.90
1107;DHT22;540;49.448;8.612;2024-02-04T03:31:55;8.90;99.90
1107;DHT22;540;49.448;8.612;2024-02-04T03:34:23;9.10;99.90
1107;DHT22;540;49.448;8.612;2024-02-04T03:36:51;8.80;99.90
1107;DHT22;540;49.448;8.612;2024-02-04T03:39:18;9.10;99.90
1107;DHT22;540;49.448;8.612;2024-02-04T03:41:46;8.80;99.90
1107;DHT22;540;49.448;8.612;2024-02-04T03:44:14;8.80;99.90
1107;DHT22;540;49.448;8.612;2024-02-04T03:46:42;8.90;99.90
1107;DHT22;540;49.448;8.612;2024-02-04T03:49:11;9.20;99.90
1107;DHT22;540;49.448;8.612;2024-02-04T03:51:39;9.10;99.90
1107;DHT22;540;49.448;8.612;2024-02-04T03:54:07;9.00;99.90
1107;DHT22;540;49.448;8.612;2024-02-04T03:56:35;8.90;99.90
1107;DHT22;540;49.448;8.612;2024-02-04T03:59:02;9.10;99.90
1107;DHT22;540;49.448;8.612;2024-02-04T04:01:30;9.00;99.90
1107;DHT22;540;49.448;8.612;2024-02-04T04:03:58;9.20;99.90
1107;DHT22;540;49.448;8.612;2024-02-04T04:06:28;9.10;99.90
1107;DHT22;540;49.448;8.612;2024-02-04T04:08:56;9.30;99.90
1107;DHT22;540;49.448;8.612;2024-02-04T04:11:25;9.30;99.90
1107;DHT22;540;49.448;8.612;2024-02-04T04:13:53;9.10;99.90
1107;DHT22;540;49.448;8.612;2024-02-04T04:16:21;9.20;99.90
1107;DHT22;540;49.448;8.612;2024-02-04T04:18:49;9.10;99.90
1107;DHT22;540;49.448;8.612;2024-02-04T04:21:17;9.00;99.90
1107;DHT22;540;49.448;8.612;2024-02-04T04:23:47;9.10;99.90
1107;DHT22;540;49.448;8.612;2024-02-04T04:26:14;9.20;99.90
1107;DHT22;540;49.448;8.612;2024-02-04T04:28:42;9.30;99.90
1107;DHT22;540;49.448;8.612;2024-02-04T04:31:10;9.40;99.90
1107;DHT22;540;49.448;8.612;2024-02-04T04:33:38;9.40;99.90
1107;DHT22;540;49.448;8.612;2024-02-04T04:36:06;9.30;99.90
1107;DHT22;540;49.448;8.612;2024-02-04T04:38:35;9.50;99.90
1107;DHT22;540;49.448;8.612;2024-02-04T04:41:04;9.40;99.90
1107;DHT22;540;49.448;8.612;2024-02-04T04:43:36;9.40;99.90
1107;DHT22;540;49.448;8.612;2024-02-04T04:46:04;9.30;99.90
1107;DHT22;540;49.448;8.612;2024-02-04T04:48:32;9.40;99.90
1107;DHT22;540;49.448;8.612;2024-02-04T04:51:00;9.40;99.90
1107;DHT22;540;49.448;8.612;2024-02-04T04:53:28;9.40;99.90
1107;DHT22;540;49.448;8.612;2024-02-04T04:55:56;9.40;99.90
1107;DHT22;540;49.448;8.612;2024-02-04T04:58:26;9.20;99.90
1107;DHT22;540;49.448;8.612;2024-02-04T05:00:53;9.40;99.90
1107;DHT22;540;49.448;8.612;2024-02-04T05:03:20;9.30;99.90
1107;DHT22;540;49.448;8.612;2024-02-04T05:05:48;9.20;99.90
1107;DHT22;540;49.448;8.612;2024-02-04T05:08:16;9.40;99.90
1107;DHT22;540;49.448;8.612;2024-02-04T05:10:44;9.40;99.90
1107;DHT22;540;49.448;8.612;2024-02-04T05:13:11;9.30;99.90
1107;DHT22;540;49.448;8.612;2024-02-04T05:15:40;9.40;99.90
1107;DHT22;540;49.448;8.612;2024-02-04T05:18:08;9.20;99.90
1107;DHT22;540;49.448;8.612;2024-02-04T05:20:36;9.40;99.90
1107;DHT22;540;49.448;8.612;2024-02-04T05:23:03;9.40;99.90
1107;DHT22;540;49.448;8.612;2024-02-04T05:25:31;9.40;99.90
1107;DHT22;540;49.448;8.612;2024-02-04T05:27:59;9.10;99.90
1107;DHT22;540;49.448;8.612;2024-02-04T05:30:27;9.30;99.90
1107;DHT22;540;49.448;8.612;2024-02-04T05:32:56;9.30;99.90
1107;DHT22;540;49.448;8.612;2024-02-04T05:35:24;9.10;99.90
1107;DHT22;540;49.448;8.612;2024-02-04T05:37:52;9.30;99.90
1107;DHT22;540;49.448;8.612;2024-02-04T05:40:20;9.10;99.90
1107;DHT22;540;49.448;8.612;2024-02-04T05:42:48;9.30;99.90
1107;DHT22;540;49.448;8.612;2024-02-04T05:45:16;9.30;99.90
1107;DHT22;540;49.448;8.612;2024-02-04T05:47:44;9.40;99.90
1107;DHT22;540;49.448;8.612;2024-02-04T05:50:13;9.40;99.90
1107;DHT22;540;49.448;8.612;2024-02-04T05:52:42;8.60;99.90
1107;DHT22;540;49.448;8.612;2024-02-04T05:55:10;9.30;99.90
1107;DHT22;540;49.448;8.612;2024-02-04T05:57:38;9.40;99.90
1107;DHT22;540;49.448;8.612;2024-02-04T06:00:07;9.40;99.90
1107;DHT22;540;49.448;8.612;2024-02-04T06:02:36;9.40;99.90
1107;DHT22;540;49.448;8.612;2024-02-04T06:05:04;9.40;99.90
1107;DHT22;540;49.448;8.612;2024-02-04T06:07:34;9.40;99.90
1107;DHT22;540;49.448;8.612;2024-02-04T06:10:02;9.40;99.90
1107;DHT22;540;49.448;8.612;2024-02-04T06:12:30;9.30;99.90
1107;DHT22;540;49.448;8.612;2024-02-04T06:14:58;9.30;99.90
1107;DHT22;540;49.448;8.612;2024-02-04T06:17:26;9.30;99.90
1107;DHT22;540;49.448;8.612;2024-02-04T06:19:54;9.30;99.90
1107;DHT22;540;49.448;8.612;2024-02-04T06:22:24;9.20;99.90
1107;DHT22;540;49.448;8.612;2024-02-04T06:24:53;9.20;99.90
1107;DHT22;540;49.448;8.612;2024-02-04T06:27:21;9.20;99.90
1107;DHT22;540;49.448;8.612;2024-02-04T06:29:49;9.10;99.90
1107;DHT22;540;49.448;8.612;2024-02-04T06:32:17;9.10;99.90
1107;DHT22;540;49.448;8.612;2024-02-04T06:34:46;9.00;99.90
1107;DHT22;540;49.448;8.612;2024-02-04T06:37:14;8.90;99.90
1107;DHT22;540;49.448;8.612;2024-02-04T06:39:42;9.20;99.90
1107;DHT22;540;49.448;8.612;2024-02-04T06:42:12;9.00;99.90
1107;DHT22;540;49.448;8.612;2024-02-04T06:44:43;9.20;99.90
1107;DHT22;540;49.448;8.612;2024-02-04T06:47:10;9.00;99.90
1107;DHT22;540;49.448;8.612;2024-02-04T06:49:43;9.10;99.90
1107;DHT22;540;49.448;8.612;2024-02-04T06:52:11;8.90;99.90
1107;DHT22;540;49.448;8.612;2024-02-04T06:54:39;9.10;99.90
1107;DHT22;540;49.448;8.612;2024-02-04T06:57:07;9.00;99.90
1107;DHT22;540;49.448;8.612;2024-02-04T06:59:37;9.00;99.90
1107;DHT22;540;49.448;8.612;2024-02-04T07:02:05;8.90;99.90
1107;DHT22;540;49.448;8.612;2024-02-04T07:04:33;9.20;99.90
1107;DHT22;540;49.448;8.612;2024-02-04T07:07:01;9.10;99.90
1107;DHT22;540;49.448;8.612;2024-02-04T07:09:29;9.00;99.90
1107;DHT22;540;49.448;8.612;2024-02-04T07:11:57;8.90;99.90
1107;DHT22;540;49.448;8.612;2024-02-04T07:14:24;8.80;99.90
1107;DHT22;540;49.448;8.612;2024-02-04T07:16:54;8.80;99.90
1107;DHT22;540;49.448;8.612;2024-02-04T07:19:21;8.90;99.90
1107;DHT22;540;49.448;8.612;2024-02-04T07:21:50;8.80;99.90
1107;DHT22;540;49.448;8.612;2024-02-04T07:24:17;9.10;99.90
1107;DHT22;540;49.448;8.612;2024-02-04T07:26:45;9.00;99.90
1107;DHT22;540;49.448;8.612;2024-02-04T07:29:13;9.00;99.90
1107;DHT22;540;49.448;8.612;2024-02-04T07:31:42;8.90;99.90
1107;DHT22;540;49.448;8.612;2024-02-04T07:34:11;9.20;99.90
1107;DHT22;540;49.448;8.612;2024-02-04T07:36:39;9.00;99.90
1107;DHT22;540;49.448;8.612;2024-02-04T07:39:07;9.10;99.90
1107;DHT22;540;49.448;8.612;2024-02-04T07:41:35;8.90;99.90
1107;DHT22;540;49.448;8.612;2024-02-04T07:44:03;9.00;99.90
1107;DHT22;540;49.448;8.612;2024-02-04T07:46:31;9.10;99.90
1107;DHT22;540;49.448;8.612;2024-02-04T07:48:59;8.90;99.90
1107;DHT22;540;49.448;8.612;2024-02-04T07:51:27;9.10;99.90
1107;DHT22;540;49.448;8.612;2024-02-04T07:53:55;9.00;99.90
1107;DHT22;540;49.448;8.612;2024-02-04T07:56:23;9.20;99.90
1107;DHT22;540;49.448;8.612;2024-02-04T07:58:51;8.50;99.90
1107;DHT22;540;49.448;8.612;2024-02-04T08:01:19;8.90;99.90
1107;DHT22;540;49.448;8.612;2024-02-04T08:03:47;9.00;99.90
1107;DHT22;540;49.448;8.612;2024-02-04T08:06:15;8.80;99.90
1107;DHT22;540;49.448;8.612;2024-02-04T08:08:44;8.90;99.90
1107;DHT22;540;49.448;8.612;2024-02-04T08:11:17;9.10;99.90
1107;DHT22;540;49.448;8.612;2024-02-04T08:13:45;9.10;99.90
1107;DHT22;540;49.448;8.612;2024-02-04T08:16:13;8.80;99.90
1107;DHT22;540;49.448;8.612;2024-02-04T08:18:41;9.10;99.90
1107;DHT22;540;49.448;8.612;2024-02-04T08:21:09;8.80;99.90
1107;DHT22;540;49.448;8.612;2024-02-04T08:23:37;9.00;99.90
1107;DHT22;540;49.448;8.612;2024-02-04T08:26:07;9.00;99.90
1107;DHT22;540;49.448;8.612;2024-02-04T08:28:35;8.90;99.90
1107;DHT22;540;49.448;8.612;2024-02-04T08:31:03;9.00;99.90
1107;DHT22;540;49.448;8.612;2024-02-04T08:33:32;9.20;99.90
1107;DHT22;540;49.448;8.612;2024-02-04T08:36:00;9.20;99.90
1107;DHT22;540;49.448;8.612;2024-02-04T08:38:28;9.20;99.90
1107;DHT22;540;49.448;8.612;2024-02-04T08:40:56;9.00;99.90
1107;DHT22;540;49.448;8.612;2024-02-04T08:43:25;8.80;99.90
1107;DHT22;540;49.448;8.612;2024-02-04T08:45:53;9.10;99.90
1107;DHT22;540;49.448;8.612;2024-02-04T08:48:20;9.20;99.90
1107;DHT22;540;49.448;8.612;2024-02-04T08:50:48;9.20;99.90
1107;DHT22;540;49.448;8.612;2024-02-04T08:53:21;9.20;99.90
1107;DHT22;540;49.448;8.612;2024-02-04T08:55:50;9.10;99.90
1107;DHT22;540;49.448;8.612;2024-02-04T08:58:19;9.10;99.90
1107;DHT22;540;49.448;8.612;2024-02-04T09:00:48;9.20;99.90
1107;DHT22;540;49.448;8.612;2024-02-04T09:03:16;9.10;99.90
1107;DHT22;540;49.448;8.612;2024-02-04T09:05:44;9.20;99.90
1107;DHT22;540;49.448;8.612;2024-02-04T09:08:12;9.30;99.90
1107;DHT22;540;49.448;8.612;2024-02-04T09:10:40;9.10;99.90
1107;DHT22;540;49.448;8.612;2024-02-04T09:13:08;9.10;99.90
1107;DHT22;540;49.448;8.612;2024-02-04T09:15:36;9.10;99.90
1107;DHT22;540;49.448;8.612;2024-02-04T09:18:05;9.30;99.90
1107;DHT22;540;49.448;8.612;2024-02-04T09:20:34;9.20;99.90
1107;DHT22;540;49.448;8.612;2024-02-04T09:23:02;9.30;99.90
1107;DHT22;540;49.448;8.612;2024-02-04T09:25:31;9.40;99.90
1107;DHT22;540;49.448;8.612;2024-02-04T09:27:59;9.30;99.90
1107;DHT22;540;49.448;8.612;2024-02-04T09:30:27;9.20;99.90
1107;DHT22;540;49.448;8.612;2024-02-04T09:32:56;9.60;99.90
1107;DHT22;540;49.448;8.612;2024-02-04T09:35:25;9.50;99.90
1107;DHT22;540;49.448;8.612;2024-02-04T09:37:53;9.70;99.90
1107;DHT22;540;49.448;8.612;2024-02-04T09:40:22;9.60;99.90
1107;DHT22;540;49.448;8.612;2024-02-04T09:42:49;9.80;99.90
1107;DHT22;540;49.448;8.612;2024-02-04T09:45:18;9.60;99.90
1107;DHT22;540;49.448;8.612;2024-02-04T09:47:47;9.70;99.90
1107;DHT22;540;49.448;8.612;2024-02-04T09:50:17;9.90;99.90
1107;DHT22;540;49.448;8.612;2024-02-04T09:52:49;10.00;99.90
1107;DHT22;540;49.448;8.612;2024-02-04T09:55:19;9.90;99.90
1107;DHT22;540;49.448;8.612;2024-02-04T09:57:49;10.10;99.90
1107;DHT22;540;49.448;8.612;2024-02-04T10:00:19;10.10;99.90
1107;DHT22;540;49.448;8.612;2024-02-04T10:02:48;9.80;99.90
1107;DHT22;540;49.448;8.612;2024-02-04T10:05:16;10.00;99.90
1107;DHT22;540;49.448;8.612;2024-02-04T10:07:44;10.00;99.90
1107;DHT22;540;49.448;8.612;2024-02-04T10:10:14;10.00;99.90
1107;DHT22;540;49.448;8.612;2024-02-04T10:12:42;9.90;99.90
1107;DHT22;540;49.448;8.612;2024-02-04T10:15:10;10.00;99.90
1107;DHT22;540;49.448;8.612;2024-02-04T10:17:42;9.50;99.90
1107;DHT22;540;49.448;8.612;2024-02-04T10:20:10;10.10;99.90
1107;DHT22;540;49.448;8.612;2024-02-04T10:22:41;10.20;99.90
1107;DHT22;540;49.448;8.612;2024-02-04T10:25:10;10.10;99.90
1107;DHT22;540;49.448;8.612;2024-02-04T10:27:41;10.10;99.90
1107;DHT22;540;49.448;8.612;2024-02-04T10:30:10;10.20;99.90
1107;DHT22;540;49.448;8.612;2024-02-04T10:32:38;10.00;99.90
1107;DHT22;540;49.448;8.612;2024-02-04T10:35:07;10.10;99.90
1107;DHT22;540;49.448;8.612;2024-02-04T10:37:35;10.40;99.90
1107;DHT22;540;49.448;8.612;2024-02-04T10:40:04;10.20;99.90
1107;DHT22;540;49.448;8.612;2024-02-04T10:42:32;10.10;99.90
1107;DHT22;540;49.448;8.612;2024-02-04T10:45:05;10.20;99.90
1107;DHT22;540;49.448;8.612;2024-02-04T10:47:37;10.30;99.90
1107;DHT22;540;49.448;8.612;2024-02-04T10:50:08;10.40;99.90
1107;DHT22;540;49.448;8.612;2024-02-04T10:52:37;9.90;99.90
1107;DHT22;540;49.448;8.612;2024-02-04T10:55:08;10.80;99.90
1107;DHT22;540;49.448;8.612;2024-02-04T10:57:38;11.00;99.90
1107;DHT22;540;49.448;8.612;2024-02-04T11:00:09;11.10;99.90
1107;DHT22;540;49.448;8.612;2024-02-04T11:02:39;10.90;99.90
1107;DHT22;540;49.448;8.612;2024-02-04T11:05:08;11.20;99.90
1107;DHT22;540;49.448;8.612;2024-02-04T11:07:37;11.00;99.90
1107;DHT22;540;49.448;8.612;2024-02-04T11:10:06;11.40;99.90
1107;DHT22;540;49.448;8.612;2024-02-04T11:12:37;11.10;99.90
1107;DHT22;540;49.448;8.612;2024-02-04T11:15:09;11.20;99.90
1107;DHT22;540;49.448;8.612;2024-02-04T11:18:11;11.20;99.90
1107;DHT22;540;49.448;8.612;2024-02-04T11:21:02;10.90;99.90
1107;DHT22;540;49.448;8.612;2024-02-04T11:23:37;10.90;99.90
1107;DHT22;540;49.448;8.612;2024-02-04T11:26:10;10.90;99.90
1107;DHT22;540;49.448;8.612;2024-02-04T11:28:38;11.10;99.90
1107;DHT22;540;49.448;8.612;2024-02-04T11:31:15;11.10;99.90
1107;DHT22;540;49.448;8.612;2024-02-04T11:33:45;11.10;99.90
1107;DHT22;540;49.448;8.612;2024-02-04T11:36:14;11.10;99.90
1107;DHT22;540;49.448;8.612;2024-02-04T11:38:48;10.80;99.90
1107;DHT22;540;49.448;8.612;2024-02-04T11:41:22;11.00;99.90
1107;DHT22;540;49.448;8.612;2024-02-04T11:43:52;11.00;99.90
1107;DHT22;540;49.448;8.612;2024-02-04T11:46:30;10.70;99.90
1107;DHT22;540;49.448;8.612;2024-02-04T11:49:01;10.60;99.90
1107;DHT22;540;49.448;8.612;2024-02-04T11:51:29;11.00;99.90
1107;DHT22;540;49.448;8.612;2024-02-04T11:53:58;10.80;99.90
1107;DHT22;540;49.448;8.612;2024-02-04T11:56:28;10.80;99.90
1107;DHT22;540;49.448;8.612;2024-02-04T11:58:57;10.90;99.90
1107;DHT22;540;49.448;8.612;2024-02-04T12:01:26;11.10;99.90
1107;DHT22;540;49.448;8.612;2024-02-04T12:03:55;10.90;99.90
1107;DHT22;540;49.448;8.612;2024-02-04T12:06:23;10.90;99.90
1107;DHT22;540;49.448;8.612;2024-02-04T12:08:51;11.10;99.90
1107;DHT22;540;49.448;8.612;2024-02-04T12:11:23;11.10;99.90
1107;DHT22;540;49.448;8.612;2024-02-04T12:13:52;10.90;99.90
1107;DHT22;540;49.448;8.612;2024-02-04T12:16:20;11.20;99.90
1107;DHT22;540;49.448;8.612;2024-02-04T12:18:51;10.90;99.90
1107;DHT22;540;49.448;8.612;2024-02-04T12:21:21;10.90;99.90
1107;DHT22;540;49.448;8.612;2024-02-04T12:23:50;11.00;99.90
1107;DHT22;540;49.448;8.612;2024-02-04T12:26:18;10.70;99.90
1107;DHT22;540;49.448;8.612;2024-02-04T12:28:46;10.80;99.90
1107;DHT22;540;49.448;8.612;2024-02-04T12:31:17;10.90;99.90
1107;DHT22;540;49.448;8.612;2024-02-04T12:33:53;11.00;99.90
1107;DHT22;540;49.448;8.612;2024-02-04T12:36:26;11.10;99.90
1107;DHT22;540;49.448;8.612;2024-02-04T12:38:55;11.30;99.90
1107;DHT22;540;49.448;8.612;2024-02-04T12:41:24;11.20;99.90
1107;DHT22;540;49.448;8.612;2024-02-04T12:43:56;11.20;99.90
1107;DHT22;540;49.448;8.612;2024-02-04T12:46:25;11.30;99.90
1107;DHT22;540;49.448;8.612;2024-02-04T12:48:55;11.20;99.90
1107;DHT22;540;49.448;8.612;2024-02-04T12:51:32;11.20;99.90
1107;DHT22;540;49.448;8.612;2024-02-04T12:54:04;11.20;99.90
1107;DHT22;540;49.448;8.612;2024-02-04T12:56:44;11.20;99.90
1107;DHT22;540;49.448;8.612;2024-02-04T12:59:24;11.30;99.90
1107;DHT22;540;49.448;8.612;2024-02-04T13:01:54;10.60;99.90
1107;DHT22;540;49.448;8.612;2024-02-04T13:04:22;11.00;99.90
1107;DHT22;540;49.448;8.612;2024-02-04T13:06:52;10.70;99.90
1107;DHT22;540;49.448;8.612;2024-02-04T13:09:20;11.10;99.90
1107;DHT22;540;49.448;8.612;2024-02-04T13:11:49;10.90;99.90
1107;DHT22;540;49.448;8.612;2024-02-04T13:14:18;10.60;99.90
1107;DHT22;540;49.448;8.612;2024-02-04T13:17:02;10.80;99.90
1107;DHT22;540;49.448;8.612;2024-02-04T13:19:32;10.90;99.90
1107;DHT22;540;49.448;8.612;2024-02-04T13:22:01;10.60;99.90
1107;DHT22;540;49.448;8.612;2024-02-04T13:24:30;10.60;99.90
1107;DHT22;540;49.448;8.612;2024-02-04T13:26:58;10.70;99.90
1107;DHT22;540;49.448;8.612;2024-02-04T13:29:27;10.90;99.90
1107;DHT22;540;49.448;8.612;2024-02-04T13:31:55;10.50;99.90
1107;DHT22;540;49.448;8.612;2024-02-04T13:34:24;10.80;99.90
1107;DHT22;540;49.448;8.612;2024-02-04T13:36:52;10.70;99.90
1107;DHT22;540;49.448;8.612;2024-02-04T13:39:20;10.70;99.90
1107;DHT22;540;49.448;8.612;2024-02-04T13:41:48;10.80;99.90
1107;DHT22;540;49.448;8.612;2024-02-04T13:44:16;11.00;99.90
1107;DHT22;540;49.448;8.612;2024-02-04T13:46:44;10.80;99.90
1107;DHT22;540;49.448;8.612;2024-02-04T13:49:12;10.80;99.90
1107;DHT22;540;49.448;8.612;2024-02-04T13:51:41;11.00;99.90
1107;DHT22;540;49.448;8.612;2024-02-04T13:54:11;11.00;99.90
1107;DHT22;540;49.448;8.612;2024-02-04T13:56:42;10.90;99.90
1107;DHT22;540;49.448;8.612;2024-02-04T13:59:10;10.80;99.90
1107;DHT22;540;49.448;8.612;2024-02-04T14:01:38;11.00;99.90
1107;DHT22;540;49.448;8.612;2024-02-04T14:04:06;11.00;99.90
1107;DHT22;540;49.448;8.612;2024-02-04T14:06:35;10.90;99.90
1107;DHT22;540;49.448;8.612;2024-02-04T14:09:04;10.90;99.90
1107;DHT22;540;49.448;8.612;2024-02-04T14:11:33;11.00;99.90
1107;DHT22;540;49.448;8.612;2024-02-04T14:14:01;11.10;99.90
1107;DHT22;540;49.448;8.612;2024-02-04T14:16:28;10.40;99.90
1107;DHT22;540;49.448;8.612;2024-02-04T14:18:56;10.90;99.90
1107;DHT22;540;49.448;8.612;2024-02-04T14:21:27;10.90;99.90
1107;DHT22;540;49.448;8.612;2024-02-04T14:23:55;11.20;99.90
1107;DHT22;540;49.448;8.612;2024-02-04T14:26:24;11.30;99.90
1107;DHT22;540;49.448;8.612;2024-02-04T14:28:52;11.00;99.90
1107;DHT22;540;49.448;8.612;2024-02-04T14:31:20;11.10;99.90
1107;DHT22;540;49.448;8.612;2024-02-04T14:33:48;10.90;99.90
1107;DHT22;540;49.448;8.612;2024-02-04T14:36:17;11.30;99.90
1107;DHT22;540;49.448;8.612;2024-02-04T14:38:45;11.10;99.90
1107;DHT22;540;49.448;8.612;2024-02-04T14:41:13;11.10;99.90
1107;DHT22;540;49.448;8.612;2024-02-04T14:43:42;11.00;99.90
1107;DHT22;540;49.448;8.612;2024-02-04T14:46:10;11.20;99.90
1107;DHT22;540;49.448;8.612;2024-02-04T14:48:38;11.20;99.90
1107;DHT22;540;49.448;8.612;2024-02-04T14:51:09;11.10;99.90
1107;DHT22;540;49.448;8.612;2024-02-04T14:53:37;10.90;99.90
1107;DHT22;540;49.448;8.612;2024-02-04T14:56:05;11.30;99.90
1107;DHT22;540;49.448;8.612;2024-02-04T14:58:34;10.90;99.90
1107;DHT22;540;49.448;8.612;2024-02-04T15:01:04;10.90;99.90
1107;DHT22;540;49.448;8.612;2024-02-04T15:03:33;11.20;99.90
1107;DHT22;540;49.448;8.612;2024-02-04T15:06:01;11.00;99.90
1107;DHT22;540;49.448;8.612;2024-02-04T15:08:29;10.80;99.90
1107;DHT22;540;49.448;8.612;2024-02-04T15:10:57;10.90;99.90
1107;DHT22;540;49.448;8.612;2024-02-04T15:13:26;10.90;99.90
1107;DHT22;540;49.448;8.612;2024-02-04T15:15:59;10.70;99.90
1107;DHT22;540;49.448;8.612;2024-02-04T15:18:28;10.90;99.90
1107;DHT22;540;49.448;8.612;2024-02-04T15:20:57;10.90;99.90
1107;DHT22;540;49.448;8.612;2024-02-04T15:23:29;10.80;99.90
1107;DHT22;540;49.448;8.612;2024-02-04T15:26:02;10.90;99.90
1107;DHT22;540;49.448;8.612;2024-02-04T15:28:39;10.80;99.90
1107;DHT22;540;49.448;8.612;2024-02-04T15:31:08;10.60;99.90
1107;DHT22;540;49.448;8.612;2024-02-04T15:33:37;10.90;99.90
1107;DHT22;540;49.448;8.612;2024-02-04T15:36:06;10.90;99.90
1107;DHT22;540;49.448;8.612;2024-02-04T15:38:35;10.90;99.90
1107;DHT22;540;49.448;8.612;2024-02-04T15:41:03;10.90;99.90
1107;DHT22;540;49.448;8.612;2024-02-04T15:43:31;10.90;99.90
1107;DHT22;540;49.448;8.612;2024-02-04T15:46:05;10.60;99.90
1107;DHT22;540;49.448;8.612;2024-02-04T15:48:38;10.60;99.90
1107;DHT22;540;49.448;8.612;2024-02-04T15:51:07;10.80;99.90
1107;DHT22;540;49.448;8.612;2024-02-04T15:53:35;11.10;99.90
1107;DHT22;540;49.448;8.612;2024-02-04T15:56:05;10.90;99.90
1107;DHT22;540;49.448;8.612;2024-02-04T15:58:36;10.80;99.90
1107;DHT22;540;49.448;8.612;2024-02-04T16:01:09;11.00;99.90
1107;DHT22;540;49.448;8.612;2024-02-04T16:03:41;10.60;99.90
1107;DHT22;540;49.448;8.612;2024-02-04T16:06:10;10.90;99.90
1107;DHT22;540;49.448;8.612;2024-02-04T16:08:38;10.50;99.90
1107;DHT22;540;49.448;8.612;2024-02-04T16:11:15;10.70;99.90
1107;DHT22;540;49.448;8.612;2024-02-04T16:13:46;10.70;99.90
1107;DHT22;540;49.448;8.612;2024-02-04T16:16:19;10.90;99.90
1107;DHT22;540;49.448;8.612;2024-02-04T16:18:49;10.90;99.90
1107;DHT22;540;49.448;8.612;2024-02-04T16:21:17;10.90;99.90
1107;DHT22;540;49.448;8.612;2024-02-04T16:23:45;10.50;99.90
1107;DHT22;540;49.448;8.612;2024-02-04T16:26:13;10.60;99.90
1107;DHT22;540;49.448;8.612;2024-02-04T16:28:41;10.50;99.90
1107;DHT22;540;49.448;8.612;2024-02-04T16:31:09;10.30;99.90
1107;DHT22;540;49.448;8.612;2024-02-04T16:33:37;10.40;99.90
1107;DHT22;540;49.448;8.612;2024-02-04T16:36:10;10.50;99.90
1107;DHT22;540;49.448;8.612;2024-02-04T16:38:38;10.60;99.90